Time;durP1;ratioP1;P1;durP2;ratioP2;P2;SDS_P1;SDS_P2;PMS_P1;PMS_P2;Temp;Humidity;BMP_temperature;BMP_pressure;BME280_temperature;BME280_humidity;BME280_pressure;Samples;Min_cycle;Max_cycle;Signal;HPM_P1;HPM_P2
2022/08/13 00:01:23;;;;;;;10.60;7.78;;;;;;;22.58;73.64;100433.02;1732568;82;21063;-63
2022/08/13 00:03:55;;;;;;;10.88;7.72;;;;;;;22.59;73.23;100430.52;1691111;84;21485;-65
2022/08/13 00:07:02;;;;;;;11.40;7.60;;;;;;;22.58;73.56;100421.30;1689971;84;21452;-65
2022/08/13 00:09:05;;;;;;;10.48;7.83;;;;;;;22.56;73.63;100407.33;1692997;84;21475;-63
2022/08/13 00:14:35;;;;;;;8.23;6.67;;;;;;;22.53;73.87;100397.55;1685414;84;21112;-63
2022/08/13 00:17:09;;;;;;;9.30;6.65;;;;;;;22.53;72.96;100382.74;1688257;84;21023;-64
2022/08/13 00:19:41;;;;;;;10.10;7.10;;;;;;;22.52;72.55;100388.05;1685943;84;21115;-62
2022/08/13 00:22:12;;;;;;;9.10;6.78;;;;;;;22.51;71.80;100381.62;1690574;84;21058;-63
2022/08/13 00:24:45;;;;;;;9.48;6.72;;;;;;;22.49;71.22;100385.81;1686136;84;21593;-64
2022/08/13 00:27:17;;;;;;;10.15;6.70;;;;;;;22.48;70.86;100386.37;1688825;84;21060;-62
2022/08/13 00:29:47;;;;;;;8.33;6.28;;;;;;;22.48;70.51;100368.22;1685609;84;21070;-62
2022/08/13 00:32:23;;;;;;;10.60;6.58;;;;;;;22.48;70.08;100361.80;1691044;84;21035;-63
2022/08/13 00:34:51;;;;;;;11.78;6.33;;;;;;;22.45;70.05;100354.81;1684080;84;21515;-63
2022/08/13 00:37:22;;;;;;;9.78;6.50;;;;;;;22.44;70.55;100346.16;1693662;84;21035;-63
2022/08/13 00:39:54;;;;;;;11.05;7.05;;;;;;;22.42;70.17;100342.80;1696098;84;20999;-63
2022/08/13 00:42:27;;;;;;;10.08;6.70;;;;;;;22.41;70.66;100350.90;1688203;84;21353;-62
2022/08/13 00:44:56;;;;;;;9.35;6.05;;;;;;;22.37;71.23;100343.63;1689005;84;21079;-62
2022/08/13 00:50:20;;;;;;;8.20;6.45;;;;;;;22.29;71.73;100351.16;1692875;84;21059;-64
2022/08/13 00:52:55;;;;;;;8.28;6.50;;;;;;;22.26;72.27;100342.50;1686071;84;21439;-64
2022/08/13 00:55:24;;;;;;;9.50;6.47;;;;;;;22.22;71.95;100332.45;1691437;84;21066;-63
2022/08/13 00:57:58;;;;;;;9.48;6.80;;;;;;;22.21;71.94;100330.77;1691171;84;21042;-64
2022/08/13 01:00:30;;;;;;;10.78;6.37;;;;;;;22.21;72.37;100333.56;1688512;84;21150;-63
2022/08/13 01:03:01;;;;;;;9.85;6.40;;;;;;;22.17;72.76;100337.18;1691912;84;21024;-62
2022/08/13 01:05:34;;;;;;;8.98;5.78;;;;;;;22.11;73.28;100330.19;1693928;84;21015;-64
2022/08/13 01:08:06;;;;;;;8.03;5.85;;;;;;;22.07;73.43;100332.38;1695819;84;21134;-65
2022/08/13 01:10:40;;;;;;;9.35;6.17;;;;;;;22.03;72.87;100325.67;1692642;84;21427;-64
2022/08/13 01:13:11;;;;;;;11.53;6.35;;;;;;;22.02;72.28;100322.02;1698455;84;21435;-62
2022/08/13 01:15:45;;;;;;;10.18;6.03;;;;;;;22.01;71.38;100322.29;1695397;84;21525;-62
2022/08/13 01:18:18;;;;;;;9.18;6.12;;;;;;;22.01;71.01;100313.92;1672118;85;21166;-63
2022/08/13 01:21:00;;;;;;;8.35;5.95;;;;;;;22.02;70.79;100322.57;1694128;84;21043;-64
2022/08/13 01:23:31;;;;;;;9.35;5.45;;;;;;;22.03;70.83;100326.52;1687525;84;21556;-67
2022/08/13 01:26:03;;;;;;;7.85;5.50;;;;;;;22.04;70.65;100325.40;1690372;84;21598;-63
2022/08/13 01:28:38;;;;;;;10.53;6.55;;;;;;;22.03;70.80;100322.88;1694009;84;21003;-63
2022/08/13 01:31:11;;;;;;;13.08;5.97;;;;;;;22.01;70.30;100330.66;1694139;84;21039;-64
2022/08/13 01:33:43;;;;;;;10.68;6.40;;;;;;;22.01;69.85;100332.05;1692705;84;21090;-63
2022/08/13 01:36:15;;;;;;;10.78;5.97;;;;;;;21.99;69.46;100323.96;1697017;84;21110;-62
2022/08/13 01:38:46;;;;;;;7.75;5.62;;;;;;;21.98;69.69;100333.44;1690981;84;21063;-62
2022/08/13 01:41:18;;;;;;;10.03;5.50;;;;;;;22.00;69.54;100327.03;1690105;85;21054;-63
2022/08/13 01:43:50;;;;;;;8.08;5.62;;;;;;;21.99;69.50;100330.94;1688598;84;21102;-64
2022/08/13 01:46:21;;;;;;;11.65;6.10;;;;;;;21.97;69.87;100332.32;1686939;85;21051;-63
2022/08/13 01:51:43;;;;;;;10.45;5.45;;;;;;;21.90;69.65;100334.53;1679298;84;21058;-63
2022/08/13 01:54:17;;;;;;;8.80;5.35;;;;;;;21.88;69.79;100332.58;1691327;84;21467;-62
2022/08/13 01:56:48;;;;;;;7.05;4.92;;;;;;;21.84;69.98;100328.94;1692244;84;21062;-63
2022/08/13 01:59:18;;;;;;;9.55;5.53;;;;;;;21.83;70.02;100317.50;1694889;84;21082;-63
2022/08/13 02:01:48;;;;;;;9.63;5.70;;;;;;;21.82;69.94;100316.38;1694280;84;21122;-63
2022/08/13 02:04:19;;;;;;;7.87;5.55;;;;;;;21.79;70.14;100315.53;1691015;85;21102;-63
2022/08/13 02:06:50;;;;;;;9.50;5.15;;;;;;;21.76;70.22;100314.13;1690621;84;21083;-62
2022/08/13 02:09:26;;;;;;;11.03;5.25;;;;;;;21.74;70.14;100312.17;1697283;84;21062;-63
2022/08/13 02:11:58;;;;;;;6.80;5.05;;;;;;;21.76;70.16;100311.89;1687721;84;21074;-63
2022/08/13 02:14:28;;;;;;;8.83;6.10;;;;;;;21.76;69.82;100314.69;1694052;84;21031;-63
2022/08/13 02:17:00;;;;;;;8.70;5.55;;;;;;;21.75;69.86;100313.84;1696766;84;21006;-63
2022/08/13 02:19:33;;;;;;;9.75;5.72;;;;;;;21.76;69.62;100311.34;1691524;84;21015;-63
2022/08/13 02:22:04;;;;;;;7.47;5.33;;;;;;;21.76;69.47;100308.55;1698771;84;21095;-64
2022/08/13 02:24:39;;;;;;;8.18;5.60;;;;;;;21.76;69.49;100300.73;1691281;84;21047;-62
2022/08/13 02:27:11;;;;;;;8.43;5.35;;;;;;;21.77;69.40;100308.00;1656464;85;21126;-63
2022/08/13 02:29:45;;;;;;;9.25;5.30;;;;;;;21.76;69.15;100303.53;1672393;84;21039;-63
2022/08/13 02:32:16;;;;;;;7.70;5.08;;;;;;;21.72;69.37;100296.27;1694405;84;21079;-64
2022/08/13 02:34:49;;;;;;;9.33;5.35;;;;;;;21.72;69.20;100292.08;1692480;84;21078;-64
2022/08/13 02:37:21;;;;;;;9.85;5.60;;;;;;;21.71;69.13;100283.44;1695496;84;21018;-65
2022/08/13 02:39:52;;;;;;;8.58;5.30;;;;;;;21.71;69.28;100284.83;1691920;84;21018;-63
2022/08/13 02:42:22;;;;;;;9.08;5.53;;;;;;;21.74;69.19;100280.66;1694362;84;21079;-64
2022/08/13 02:44:53;;;;;;;8.43;5.83;;;;;;;21.75;68.86;100267.83;1693748;84;21039;-64
2022/08/13 02:47:24;;;;;;;8.65;5.75;;;;;;;21.75;68.91;100272.02;1694081;84;21003;-64
2022/08/13 02:49:59;;;;;;;11.78;5.75;;;;;;;21.74;69.03;100262.52;1688057;85;21456;-62
2022/08/13 02:52:28;;;;;;;8.13;5.67;;;;;;;21.72;69.80;100266.98;1697416;84;21058;-62
2022/08/13 02:54:59;;;;;;;8.50;5.30;;;;;;;21.72;70.40;100261.41;1695450;84;21081;-63
2022/08/13 02:57:29;;;;;;;9.83;5.40;;;;;;;21.70;70.30;100257.21;1695161;84;21038;-64
2022/08/13 03:00:03;;;;;;;8.20;5.33;;;;;;;21.68;70.32;100258.88;1694390;84;21522;-63
2022/08/13 03:02:43;;;;;;;10.85;5.10;;;;;;;21.67;70.34;100253.58;1694876;84;21546;-63
2022/08/13 03:05:16;;;;;;;7.67;5.37;;;;;;;21.67;70.34;100270.31;1701189;84;21078;-63
2022/08/13 03:07:48;;;;;;;8.60;5.67;;;;;;;21.64;69.86;100255.52;1686556;85;21051;-63
2022/08/13 03:10:23;;;;;;;7.03;5.03;;;;;;;21.64;69.84;100261.94;1689110;84;21052;-63
2022/08/13 03:13:19;;;;;;;8.58;5.55;;;;;;;21.66;69.70;100265.29;1692253;84;21027;-63
2022/08/13 03:15:52;;;;;;;7.75;5.10;;;;;;;21.67;69.52;100268.36;1693822;84;21074;-63
2022/08/13 03:18:25;;;;;;;7.60;5.12;;;;;;;21.67;69.51;100268.92;1692458;84;21062;-63
2022/08/13 03:20:54;;;;;;;9.60;5.30;;;;;;;21.64;69.59;100276.44;1699414;84;21241;-63
2022/08/13 03:23:24;;;;;;;8.73;5.45;;;;;;;21.64;69.55;100277.83;1690400;84;21031;-63
2022/08/13 03:25:54;;;;;;;9.05;5.30;;;;;;;21.63;69.55;100275.59;1696017;84;21134;-63
2022/08/13 03:28:25;;;;;;;11.50;5.45;;;;;;;21.65;69.53;100280.34;1697211;84;21043;-64
2022/08/13 03:30:54;;;;;;;9.38;5.45;;;;;;;21.69;69.47;100287.61;1689564;84;21035;-63
2022/08/13 03:33:24;;;;;;;7.87;5.10;;;;;;;21.69;69.39;100295.42;1698197;84;21034;-64
2022/08/13 03:35:56;;;;;;;10.32;5.75;;;;;;;21.67;69.49;100287.88;1689499;84;21086;-64
2022/08/13 03:38:26;;;;;;;8.65;5.20;;;;;;;21.66;69.70;100292.34;1694158;84;21487;-63
2022/08/13 03:41:08;;;;;;;10.48;5.10;;;;;;;21.65;69.84;100288.72;1690498;84;21102;-63
2022/08/13 03:43:36;;;;;;;8.30;5.10;;;;;;;21.65;69.87;100294.29;1696362;84;21013;-63
2022/08/13 03:46:08;;;;;;;11.03;5.15;;;;;;;21.65;70.06;100294.84;1672268;84;21063;-64
2022/08/13 03:48:40;;;;;;;10.88;5.70;;;;;;;21.63;70.22;100293.72;1696636;84;20999;-63
2022/08/13 03:51:09;;;;;;;11.45;5.90;;;;;;;21.60;70.25;100291.48;1675655;84;21022;-60
2022/08/13 03:53:40;;;;;;;17.65;6.00;;;;;;;21.59;70.99;100285.63;1690264;84;21035;-60
2022/08/13 03:56:13;;;;;;;12.03;5.70;;;;;;;21.55;72.77;100286.45;1690769;84;21548;-60
2022/08/13 03:58:46;;;;;;;9.75;5.62;;;;;;;21.48;74.01;100285.30;1695147;84;21054;-61
2022/08/13 04:01:17;;;;;;;11.65;5.42;;;;;;;21.38;75.33;100282.44;1675759;84;21062;-62
2022/08/13 04:03:48;;;;;;;10.25;5.17;;;;;;;21.27;76.35;100288.52;1701479;84;21070;-61
2022/08/13 04:06:22;;;;;;;10.90;5.53;;;;;;;21.21;76.51;100301.56;1674269;84;21532;-61
2022/08/13 04:08:54;;;;;;;11.65;6.47;;;;;;;21.17;76.93;100303.77;1701544;84;21034;-62
2022/08/13 04:11:25;;;;;;;10.28;5.58;;;;;;;21.10;78.12;100304.00;1686546;84;21031;-61
2022/08/13 04:13:56;;;;;;;12.60;5.97;;;;;;;21.03;78.75;100311.77;1691144;83;21495;-62
2022/08/13 04:16:27;;;;;;;9.45;6.28;;;;;;;21.03;79.40;100318.73;1717394;82;20991;-62
2022/08/13 04:18:58;;;;;;;9.65;6.03;;;;;;;21.02;79.63;100332.92;1692953;84;21054;-62
2022/08/13 04:21:31;;;;;;;10.35;5.72;;;;;;;21.02;79.82;100343.52;1674359;84;21050;-62
2022/08/13 04:24:04;;;;;;;9.75;6.17;;;;;;;21.01;79.67;100348.80;1693331;84;21028;-63
2022/08/13 04:26:34;;;;;;;10.72;6.53;;;;;;;20.97;79.12;100344.88;1688246;84;21023;-63
2022/08/13 04:29:09;;;;;;;8.63;5.75;;;;;;;20.95;78.41;100344.30;1692277;84;21078;-63
2022/08/13 04:31:37;;;;;;;11.03;6.10;;;;;;;20.89;78.25;100336.46;1677470;84;21498;-62
2022/08/13 04:34:09;;;;;;;12.07;5.72;;;;;;;20.91;78.66;100339.53;1692463;84;21059;-62
2022/08/13 04:36:40;;;;;;;11.08;6.35;;;;;;;20.90;78.77;100348.44;1688913;84;21451;-62
2022/08/13 04:39:11;;;;;;;9.45;5.92;;;;;;;20.89;79.19;100353.17;1696201;84;21070;-63
2022/08/13 04:41:43;;;;;;;24.82;7.30;;;;;;;20.88;78.95;100368.20;1698249;84;21042;-62
2022/08/13 04:44:14;;;;;;;15.10;6.83;;;;;;;20.88;79.11;100372.94;1701273;84;21060;-64
2022/08/13 04:46:43;;;;;;;15.75;8.15;;;;;;;20.78;81.25;100363.08;1698121;84;21015;-62
2022/08/13 04:49:15;;;;;;;16.73;7.40;;;;;;;20.58;83.30;100352.05;1697530;84;21117;-64
2022/08/13 04:51:47;;;;;;;16.00;6.95;;;;;;;20.37;85.47;100339.02;1700651;84;21030;-62
2022/08/13 04:54:19;;;;;;;14.65;6.78;;;;;;;20.21;87.20;100335.80;1696210;84;20998;-62
2022/08/13 04:56:50;;;;;;;12.98;7.33;;;;;;;20.10;88.98;100324.25;1697790;84;21050;-63
2022/08/13 04:59:22;;;;;;;15.70;7.05;;;;;;;20.03;90.19;100331.97;1701477;84;21073;-63
2022/08/13 05:01:54;;;;;;;14.47;7.70;;;;;;;19.91;91.35;100345.47;1700941;84;21057;-61
2022/08/13 05:04:26;;;;;;;10.10;6.95;;;;;;;19.84;92.23;100340.66;1694551;84;21059;-62
2022/08/13 05:06:57;;;;;;;9.75;7.60;;;;;;;19.79;93.09;100335.59;1690972;85;21458;-63
2022/08/13 05:09:27;;;;;;;15.83;7.55;;;;;;;19.71;93.98;100318.82;1689254;84;21071;-61
2022/08/13 05:11:59;;;;;;;11.45;8.33;;;;;;;19.67;94.87;100311.26;1689086;84;21011;-63
2022/08/13 05:14:31;;;;;;;13.48;8.75;;;;;;;19.63;95.59;100323.45;1688780;84;21031;-62
2022/08/13 05:17:03;;;;;;;12.18;8.58;;;;;;;19.61;96.37;100320.09;1692692;84;21038;-61
2022/08/13 05:19:34;;;;;;;13.18;8.20;;;;;;;19.65;97.28;100314.30;1696527;84;21066;-62
2022/08/13 05:22:08;;;;;;;11.80;8.03;;;;;;;19.66;97.50;100302.63;1697504;84;21039;-61
2022/08/13 05:24:41;;;;;;;13.40;7.58;;;;;;;19.65;97.96;100298.17;1686141;85;21463;-61
2022/08/13 05:27:13;;;;;;;15.40;8.60;;;;;;;19.62;98.33;100306.48;1691671;84;21071;-64
2022/08/13 05:29:46;;;;;;;13.45;8.40;;;;;;;19.62;98.94;100303.15;1694101;84;21066;-62
2022/08/13 05:32:16;;;;;;;11.93;7.90;;;;;;;19.65;99.46;100289.28;1696277;84;21089;-63
2022/08/13 05:34:48;;;;;;;15.15;8.80;;;;;;;19.67;99.93;100297.36;1695996;84;21065;-66
2022/08/13 05:37:19;;;;;;;14.38;9.03;;;;;;;19.69;100.00;100294.61;1696481;84;21002;-63
2022/08/13 05:39:52;;;;;;;16.50;9.50;;;;;;;19.71;100.00;100291.56;1665649;85;21456;-63
2022/08/13 05:42:23;;;;;;;16.60;8.88;;;;;;;19.74;100.00;100293.83;1693834;84;21034;-65
2022/08/13 05:44:57;;;;;;;16.23;10.35;;;;;;;19.78;100.00;100292.20;1701292;84;21031;-66
2022/08/13 05:47:28;;;;;;;14.98;9.68;;;;;;;19.85;100.00;100291.45;1692593;84;21082;-65
2022/08/13 05:50:00;;;;;;;14.75;9.10;;;;;;;19.95;100.00;100291.55;1673220;84;21070;-65
2022/08/13 05:52:34;;;;;;;13.80;9.63;;;;;;;20.02;100.00;100285.78;1696242;84;21047;-67
2022/08/13 05:55:07;;;;;;;18.10;9.95;;;;;;;20.10;100.00;100286.70;1697231;84;21035;-65
2022/08/13 05:57:40;;;;;;;15.68;9.90;;;;;;;20.17;100.00;100281.80;1636959;87;21023;-69
2022/08/13 06:05:49;;;;;;;13.30;10.20;;;;;;;20.38;100.00;100293.39;1679686;85;21053;-66
2022/08/13 06:08:27;;;;;;;14.75;10.30;;;;;;;20.39;100.00;100285.36;1682617;85;21060;-66
2022/08/13 06:10:59;;;;;;;14.00;10.28;;;;;;;20.42;100.00;100289.55;1682626;85;21085;-67
2022/08/13 06:13:30;;;;;;;17.27;10.55;;;;;;;20.47;100.00;100283.48;1682734;85;21044;-67
2022/08/13 06:16:03;;;;;;;13.20;9.40;;;;;;;20.53;100.00;100288.53;1681459;85;22513;-68
2022/08/13 06:18:38;;;;;;;14.47;9.83;;;;;;;20.58;100.00;100292.20;1681582;85;21024;-66
2022/08/13 06:21:12;;;;;;;12.55;10.05;;;;;;;20.61;100.00;100281.08;1663921;82;21103;-67
2022/08/13 06:23:48;;;;;;;13.48;9.38;;;;;;;20.64;100.00;100283.88;1741440;82;21016;-67
2022/08/13 06:26:21;;;;;;;14.13;10.20;;;;;;;20.65;100.00;100283.62;1726866;82;20991;-66
2022/08/13 06:28:53;;;;;;;14.75;9.98;;;;;;;20.62;99.78;100284.16;1746496;82;21007;-69
2022/08/13 06:31:28;;;;;;;15.68;10.10;;;;;;;20.66;100.00;100285.85;1693210;84;21130;-67
2022/08/13 06:33:56;;;;;;;16.77;9.93;;;;;;;20.71;100.00;100282.55;1745160;82;21031;-67
2022/08/13 06:36:29;;;;;;;17.75;9.70;;;;;;;20.73;100.00;100292.87;1689620;85;21507;-68
2022/08/13 06:39:03;;;;;;;14.80;10.00;;;;;;;20.75;100.00;100282.30;1741787;82;21459;-67
2022/08/13 06:41:36;;;;;;;15.40;9.45;;;;;;;20.75;99.79;100296.78;1740766;82;21071;-66
2022/08/13 06:44:11;;;;;;;14.33;9.83;;;;;;;20.74;99.07;100291.77;1687730;84;21130;-67
2022/08/13 06:46:42;;;;;;;12.82;9.90;;;;;;;20.74;98.93;100286.74;1693058;84;21447;-66
2022/08/13 06:49:14;;;;;;;13.68;9.80;;;;;;;20.75;98.58;100296.78;1686230;84;21058;-67
2022/08/13 06:51:45;;;;;;;14.00;9.73;;;;;;;20.80;98.71;100291.24;1690474;83;21055;-67
2022/08/13 06:54:18;;;;;;;14.03;10.40;;;;;;;20.90;98.63;100291.34;1684959;84;21492;-67
2022/08/13 06:56:49;;;;;;;12.23;9.90;;;;;;;21.03;98.54;100299.23;1696546;83;21019;-66
2022/08/13 06:59:24;;;;;;;15.95;10.75;;;;;;;21.19;98.95;100294.58;1675151;85;21039;-66
2022/08/13 07:01:57;;;;;;;16.97;10.58;;;;;;;21.32;98.32;100290.50;1744224;82;21038;-67
2022/08/13 07:04:28;;;;;;;12.18;9.50;;;;;;;21.49;98.51;100289.22;1726152;82;21011;-67
2022/08/13 07:06:59;;;;;;;12.90;8.98;;;;;;;21.63;97.49;100289.55;1683312;84;21055;-67
2022/08/13 07:09:31;;;;;;;14.50;9.65;;;;;;;21.69;95.12;100282.87;1666891;85;21102;-67
2022/08/13 07:12:05;;;;;;;15.38;9.38;;;;;;;21.69;94.19;100278.69;1683045;84;21613;-68
2022/08/13 07:14:37;;;;;;;14.93;10.00;;;;;;;21.71;94.33;100277.02;1669043;84;21038;-66
2022/08/13 07:17:07;;;;;;;17.25;11.30;;;;;;;21.74;93.44;100270.89;1697382;83;21519;-66
2022/08/13 07:19:39;;;;;;;14.55;10.05;;;;;;;21.86;93.86;100270.64;1686727;84;21432;-67
2022/08/13 07:22:10;;;;;;;13.05;9.18;;;;;;;21.95;93.26;100266.20;1659677;85;21087;-67
2022/08/13 07:24:46;;;;;;;15.32;11.12;;;;;;;21.99;92.55;100271.50;1683773;84;21040;-66
2022/08/13 07:27:16;;;;;;;12.95;10.08;;;;;;;22.02;91.83;100279.32;1693683;84;21042;-68
2022/08/13 07:29:49;;;;;;;17.77;9.80;;;;;;;22.09;91.32;100274.34;1684031;85;21082;-68
2022/08/13 07:32:19;;;;;;;13.65;9.70;;;;;;;22.13;90.83;100272.15;1688878;84;21043;-66
2022/08/13 07:34:52;;;;;;;14.13;9.38;;;;;;;22.18;90.27;100277.45;1691431;84;21063;-69
2022/08/13 07:37:22;;;;;;;14.38;9.90;;;;;;;22.17;89.44;100286.95;1688481;84;21479;-65
2022/08/13 07:40:01;;;;;;;15.25;9.93;;;;;;;22.12;89.14;100290.56;1687172;84;21107;-68
2022/08/13 07:42:32;;;;;;;14.87;10.10;;;;;;;22.08;88.88;100304.76;1687703;84;21491;-69
2022/08/13 07:45:02;;;;;;;12.85;9.80;;;;;;;22.07;89.11;100315.08;1684993;84;21122;-63
2022/08/13 07:47:33;;;;;;;22.58;12.33;;;;;;;22.07;89.81;100323.45;1674517;85;21531;-64
2022/08/13 07:50:10;;;;;;;21.07;13.32;;;;;;;22.04;89.63;100325.95;1685293;84;21059;-71
2022/08/13 07:52:38;;;;;;;20.45;12.80;;;;;;;21.91;91.42;100319.47;1687084;84;21118;-72
2022/08/13 07:55:08;;;;;;;23.80;15.15;;;;;;;21.60;92.40;100312.40;1688517;83;21030;-68
2022/08/13 07:57:44;;;;;;;23.80;15.95;;;;;;;21.30;93.58;100303.86;1690717;84;21134;-70
2022/08/13 08:00:21;;;;;;;25.50;17.20;;;;;;;21.09;95.29;100291.18;1675680;85;21529;-68
2022/08/13 08:02:48;;;;;;;28.42;18.07;;;;;;;20.92;96.41;100276.59;1678390;85;21099;-69
2022/08/13 08:05:20;;;;;;;26.15;17.70;;;;;;;20.76;97.27;100285.92;1737594;82;21487;-69
2022/08/13 08:07:51;;;;;;;28.23;18.07;;;;;;;20.65;98.51;100287.80;1740881;82;21023;-66
2022/08/13 08:10:23;;;;;;;24.02;16.02;;;;;;;20.58;99.63;100285.23;1741887;82;21054;-62
2022/08/13 08:12:59;;;;;;;27.75;18.05;;;;;;;20.51;100.00;100280.45;1714100;82;21006;-67
2022/08/13 08:15:27;;;;;;;26.70;17.90;;;;;;;20.48;100.00;100296.30;1737296;82;21560;-71
2022/08/13 08:18:01;;;;;;;27.00;17.98;;;;;;;20.49;100.00;100290.17;1730218;82;21086;-74
2022/08/13 08:20:32;;;;;;;30.05;19.37;;;;;;;20.50;100.00;100279.33;1738384;82;21031;-69
2022/08/13 08:23:04;;;;;;;28.45;19.32;;;;;;;20.52;100.00;100274.33;1736826;82;21047;-70
2022/08/13 08:25:34;;;;;;;28.35;20.12;;;;;;;20.52;100.00;100275.72;1739946;82;21031;-72
2022/08/13 08:28:05;;;;;;;28.85;20.12;;;;;;;20.52;100.00;100268.21;1740722;82;21070;-72
2022/08/13 08:30:39;;;;;;;37.17;22.25;;;;;;;20.55;100.00;100261.27;1733995;82;21526;-72
2022/08/13 08:33:10;;;;;;;28.90;19.77;;;;;;;20.57;100.00;100269.64;1742216;82;21059;-71
2022/08/13 08:35:42;;;;;;;30.68;19.75;;;;;;;20.57;100.00;100278.55;1737501;82;21023;-73
2022/08/13 08:43:51;;;;;;;31.70;20.85;;;;;;;20.62;100.00;100276.35;1737407;82;21064;-72
2022/08/13 08:46:22;;;;;;;35.05;20.27;;;;;;;20.65;100.00;100274.42;1749324;82;21051;-73
2022/08/13 08:48:54;;;;;;;27.73;19.05;;;;;;;20.67;100.00;100270.27;1739254;82;21074;-71
2022/08/13 08:51:24;;;;;;;28.83;20.30;;;;;;;20.68;100.00;100273.89;1730936;82;21032;-71
2022/08/13 08:53:56;;;;;;;31.12;20.62;;;;;;;20.70;100.00;100264.72;1742652;82;20990;-72
2022/08/13 08:56:33;;;;;;;34.45;21.90;;;;;;;20.74;100.00;100269.48;1737243;82;21050;-73
2022/08/13 08:58:59;;;;;;;34.80;20.77;;;;;;;20.78;100.00;100262.27;1740035;82;21062;-71
2022/08/13 09:01:37;;;;;;;30.97;20.37;;;;;;;20.83;100.00;100260.94;1749144;82;21488;-71
2022/08/13 09:04:09;;;;;;;28.90;19.70;;;;;;;20.90;100.00;100260.70;1733441;82;21074;-71
2022/08/13 09:06:40;;;;;;;30.08;20.37;;;;;;;20.99;100.00;100267.45;1742178;82;21094;-70
2022/08/13 09:09:13;;;;;;;31.35;19.92;;;;;;;21.09;100.00;100268.05;1742156;82;21289;-71
2022/08/13 09:11:44;;;;;;;28.92;18.90;;;;;;;21.17;100.00;100262.80;1741561;82;21073;-71
2022/08/13 09:14:16;;;;;;;25.70;17.67;;;;;;;21.24;100.00;100261.20;1742367;82;20991;-69
2022/08/13 09:16:45;;;;;;;28.25;19.23;;;;;;;21.31;100.00;100258.16;1719797;82;21028;-71
2022/08/13 09:19:15;;;;;;;31.55;18.42;;;;;;;21.39;100.00;100256.24;1745981;82;20999;-72
2022/08/13 09:21:49;;;;;;;24.80;18.05;;;;;;;21.47;100.00;100243.20;1740779;82;21023;-72
2022/08/13 09:24:24;;;;;;;25.92;17.73;;;;;;;21.55;100.00;100237.09;1747627;82;21006;-71
2022/08/13 09:26:55;;;;;;;25.57;17.37;;;;;;;21.61;100.00;100227.63;1745556;82;21042;-70
2022/08/13 09:29:26;;;;;;;23.07;17.35;;;;;;;21.67;100.00;100232.11;1744782;82;21011;-71
2022/08/13 09:31:58;;;;;;;26.10;17.37;;;;;;;21.72;100.00;100229.89;1742005;82;21055;-70
2022/08/13 09:34:30;;;;;;;25.08;17.95;;;;;;;21.80;100.00;100226.00;1743252;82;21050;-71
2022/08/13 09:36:58;;;;;;;22.55;16.57;;;;;;;21.89;100.00;100221.27;1742892;82;21078;-72
2022/08/13 09:39:35;;;;;;;22.10;16.95;;;;;;;21.98;100.00;100216.81;1738928;82;21066;-69
2022/08/13 09:42:12;;;;;;;23.98;16.50;;;;;;;22.05;100.00;100216.02;1728993;82;21031;-69
2022/08/13 09:44:43;;;;;;;23.40;16.30;;;;;;;22.14;100.00;100210.19;1732415;82;21065;-71
2022/08/13 09:47:15;;;;;;;24.15;16.23;;;;;;;22.20;100.00;100201.26;1741841;82;21050;-70
2022/08/13 09:49:48;;;;;;;23.57;16.23;;;;;;;22.26;100.00;100197.34;1737327;82;21074;-70
2022/08/13 09:52:22;;;;;;;20.55;16.27;;;;;;;22.32;100.00;100193.44;1738093;82;21051;-70
2022/08/13 09:54:54;;;;;;;20.88;15.20;;;;;;;22.40;100.00;100199.30;1743574;82;21491;-70
2022/08/13 09:57:25;;;;;;;21.70;15.03;;;;;;;22.50;100.00;100194.25;1741854;82;21086;-69
2022/08/13 10:00:00;;;;;;;21.17;15.05;;;;;;;22.57;100.00;100189.22;1744007;82;21054;-69
2022/08/13 10:02:34;;;;;;;22.00;14.75;;;;;;;22.63;100.00;100190.88;1740613;82;21023;-68
2022/08/13 10:05:05;;;;;;;19.85;14.43;;;;;;;22.68;100.00;100193.66;1744204;82;21528;-69
2022/08/13 10:07:39;;;;;;;18.77;14.07;;;;;;;22.71;100.00;100193.09;1749152;82;21477;-68
2022/08/13 10:10:10;;;;;;;20.10;14.90;;;;;;;22.75;100.00;100190.56;1743431;82;21107;-70
2022/08/13 10:12:42;;;;;;;18.85;14.75;;;;;;;22.80;100.00;100187.83;1739381;82;21055;-69
2022/08/13 10:15:13;;;;;;;20.45;14.45;;;;;;;22.85;100.00;100189.20;1740587;82;21043;-68
2022/08/13 10:17:52;;;;;;;24.82;15.50;;;;;;;22.93;100.00;100187.78;1740692;82;21011;-67
2022/08/13 10:20:33;;;;;;;22.73;14.15;;;;;;;22.98;100.00;100186.37;1742769;82;21019;-69
2022/08/13 10:23:07;;;;;;;18.77;14.65;;;;;;;23.05;99.64;100182.14;1738865;82;21075;-68
2022/08/13 10:25:39;;;;;;;19.80;13.75;;;;;;;23.16;99.91;100176.52;1722058;82;20991;-67
2022/08/13 10:28:26;;;;;;;17.37;14.05;;;;;;;23.24;99.70;100168.92;1737398;82;21035;-68
2022/08/13 10:31:01;;;;;;;19.73;13.48;;;;;;;23.34;99.67;100166.91;1729218;82;21081;-68
2022/08/13 10:33:33;;;;;;;20.20;14.33;;;;;;;23.45;99.66;100166.88;1740563;82;21491;-68
2022/08/13 10:36:05;;;;;;;15.18;12.00;;;;;;;23.50;95.12;100155.10;1741881;82;21027;-68
2022/08/13 10:38:35;;;;;;;17.90;12.30;;;;;;;23.62;90.16;100167.37;1739297;82;20983;-69
2022/08/13 10:41:07;;;;;;;16.35;11.35;;;;;;;23.72;88.54;100165.90;1749098;82;21026;-68
2022/08/13 10:43:40;;;;;;;15.50;12.20;;;;;;;23.76;87.25;100154.40;1744182;82;21439;-69
2022/08/13 10:46:16;;;;;;;18.55;12.23;;;;;;;23.84;86.42;100159.37;1720465;82;21058;-67
2022/08/13 10:48:55;;;;;;;16.93;12.28;;;;;;;23.93;85.25;100159.02;1744171;82;21066;-67
2022/08/13 10:51:18;;;;;;;16.95;11.45;;;;;;;23.99;85.09;100166.81;1738105;82;21051;-68
2022/08/13 10:53:58;;;;;;;18.75;12.47;;;;;;;24.03;82.36;100157.53;1738191;82;21023;-67
2022/08/13 10:56:30;;;;;;;14.45;11.50;;;;;;;24.12;83.27;100151.34;1746390;82;21034;-69
2022/08/13 10:59:01;;;;;;;17.57;12.20;;;;;;;24.17;82.66;100153.53;1739113;82;21023;-68
2022/08/13 11:01:31;;;;;;;15.38;10.80;;;;;;;24.26;82.67;100160.16;1738860;82;21063;-68
2022/08/13 11:04:02;;;;;;;16.85;11.65;;;;;;;24.31;80.93;100153.14;1742999;82;21066;-68
2022/08/13 11:06:36;;;;;;;16.73;11.38;;;;;;;24.41;80.59;100151.38;1742931;82;21046;-68
2022/08/13 11:09:07;;;;;;;15.63;11.60;;;;;;;24.47;79.66;100155.23;1746998;82;21030;-67
2022/08/13 11:11:39;;;;;;;15.10;12.10;;;;;;;24.54;80.81;100154.88;1740856;82;21063;-65
2022/08/13 11:14:13;;;;;;;15.83;11.70;;;;;;;24.60;79.30;100155.92;1741594;82;21058;-72
2022/08/13 11:19:25;;;;;;;14.73;11.83;;;;;;;24.76;76.17;100144.58;1741810;82;21031;-70
2022/08/13 11:21:50;;;;;;;14.85;10.55;;;;;;;24.86;77.46;100147.26;1741454;82;20999;-69
2022/08/13 11:24:21;;;;;;;17.98;12.37;;;;;;;24.93;75.38;100144.36;1740063;82;21026;-72
2022/08/13 11:26:53;;;;;;;14.20;10.90;;;;;;;25.03;75.63;100148.20;1740372;82;21663;-73
2022/08/13 11:29:21;;;;;;;16.07;10.48;;;;;;;25.08;73.81;100141.13;1743805;82;21038;-69
2022/08/13 11:31:53;;;;;;;15.10;11.60;;;;;;;25.12;72.53;100140.23;1743356;82;21007;-71
2022/08/13 11:34:25;;;;;;;15.28;10.63;;;;;;;25.22;72.40;100140.66;1743566;82;21443;-72
2022/08/13 11:36:56;;;;;;;19.95;11.60;;;;;;;25.31;71.83;100137.44;1744935;82;20994;-68
2022/08/13 11:39:27;;;;;;;16.60;10.63;;;;;;;25.42;70.57;100138.16;1740422;82;21071;-69
2022/08/13 11:41:59;;;;;;;16.35;10.80;;;;;;;25.50;69.73;100134.67;1742710;82;21791;-70
2022/08/13 11:44:32;;;;;;;15.68;10.43;;;;;;;25.57;69.71;100138.77;1740627;82;21537;-70
2022/08/13 11:47:01;;;;;;;19.10;11.30;;;;;;;25.64;69.78;100131.94;1730460;82;21043;-70
2022/08/13 11:49:33;;;;;;;14.15;11.03;;;;;;;25.68;69.64;100134.44;1741580;82;21075;-69
2022/08/13 11:52:05;;;;;;;15.32;10.88;;;;;;;25.74;68.40;100121.98;1732030;82;21505;-69
2022/08/13 11:54:37;;;;;;;18.95;10.63;;;;;;;25.80;68.51;100124.41;1749060;82;21034;-69
2022/08/13 11:57:09;;;;;;;12.43;9.85;;;;;;;25.84;67.76;100126.87;1725205;82;21568;-69
2022/08/13 11:59:40;;;;;;;14.68;10.65;;;;;;;25.86;67.63;100120.95;1744500;82;21077;-69